KPTB/PTB METAR and TAF weather

Enter ICAO airport designator
Station Type Date Time Source
KPTB METAR 2021/09/25 12:35 UTC NOAA

KPTB 251235Z AUTO 00000KT 10SM CLR 13/12 A3009 RMK AO2 T01330119 TSNO


Station Type Date Time Source
KPTB Decoded METAR 2021/09/25 12:35 UTC NOAA

Petersburg, Dinwiddie County Airport, VA, United States (KPTB) 37-11N 077-31W
Sep 25, 2021 - 08:35 AM EDT / 2021.09.25 1235 UTC
Wind: Calm:0
Visibility: 10 mile(s):0
Sky conditions: clear
Temperature: 55.9 F (13.3 C)
Dew Point: 53.4 F (11.9 C)
Relative Humidity: 91%
Pressure (altimeter): 30.09 in. Hg (1018 hPa)
ob: KPTB 251235Z AUTO 00000KT 10SM CLR 13/12 A3009 RMK AO2 T01330119 TSNO
cycle: 12

Station Type Date Time Source
KPTB TAF UTC NOAA

Error!

Example: see airport list